Time;durP1;ratioP1;P1;durP2;ratioP2;P2;SDS_P1;SDS_P2;PMS_P1;PMS_P2;Temp;Humidity;BMP_temperature;BMP_pressure;BME280_temperature;BME280_humidity;BME280_pressure;Samples;Min_cycle;Max_cycle;Signal;HPM_P1;HPM_P2
2022/12/02 00:00:26;;;;;;;52.73;28.40;;;2.10;99.90;;;;;;5025339;28;20194;-73
2022/12/02 00:02:55;;;;;;;54.53;27.80;;;2.00;99.90;;;;;;5027638;28;20211;-77
2022/12/02 00:05:31;;;;;;;56.80;27.43;;;2.00;99.90;;;;;;5031621;28;20290;-73
2022/12/02 00:08:24;;;;;;;51.93;26.17;;;2.00;99.90;;;;;;5024540;28;20298;-72
2022/12/02 00:10:52;;;;;;;56.17;28.73;;;2.10;99.90;;;;;;5023583;28;20632;-72
2022/12/02 00:13:35;;;;;;;52.93;26.70;;;2.00;99.90;;;;;;5023724;28;20226;-73
2022/12/02 00:16:03;;;;;;;50.67;27.33;;;2.00;99.90;;;;;;5027565;28;20209;-72
2022/12/02 00:18:29;;;;;;;51.17;27.57;;;2.00;99.90;;;;;;5027180;28;20235;-72
2022/12/02 00:20:55;;;;;;;53.03;28.00;;;2.00;99.90;;;;;;5024360;28;20289;-72
2022/12/02 00:23:21;;;;;;;52.53;26.93;;;2.00;99.90;;;;;;5029092;28;20208;-72
2022/12/02 00:25:52;;;;;;;53.90;26.87;;;2.00;99.90;;;;;;5026559;28;20706;-72
2022/12/02 00:28:18;;;;;;;56.43;27.57;;;2.00;99.90;;;;;;5027021;28;20223;-72
2022/12/02 00:30:43;;;;;;;54.10;27.20;;;2.10;99.90;;;;;;5027280;28;20208;-72
2022/12/02 00:33:09;;;;;;;51.67;27.10;;;2.00;99.90;;;;;;5024113;28;20706;-71
2022/12/02 00:35:35;;;;;;;55.00;26.80;;;2.10;99.90;;;;;;5027679;28;20179;-72
2022/12/02 00:38:01;;;;;;;56.07;26.60;;;2.00;99.90;;;;;;5025675;28;20219;-74
2022/12/02 00:40:26;;;;;;;52.13;26.17;;;2.00;99.90;;;;;;5023996;28;20214;-72
2022/12/02 00:42:52;;;;;;;54.37;27.00;;;2.00;99.90;;;;;;5023410;28;20235;-74
2022/12/02 00:48:02;;;;;;;54.57;27.53;;;2.00;99.90;;;;;;5025717;28;20696;-72
2022/12/02 00:50:28;;;;;;;54.57;28.07;;;2.10;99.90;;;;;;5028573;28;20215;-72
2022/12/02 00:52:54;;;;;;;52.37;28.17;;;2.10;99.90;;;;;;5021407;28;20221;-72
2022/12/02 00:55:20;;;;;;;49.57;25.83;;;2.00;99.90;;;;;;5028628;28;20219;-71
2022/12/02 00:57:45;;;;;;;55.33;27.10;;;2.10;99.90;;;;;;5026723;28;20583;-73
2022/12/02 01:00:12;;;;;;;51.00;25.90;;;2.00;99.90;;;;;;5023503;28;20181;-72
2022/12/02 01:02:37;;;;;;;56.43;27.90;;;2.10;99.90;;;;;;5026131;28;20195;-72
2022/12/02 01:05:04;;;;;;;54.00;28.43;;;2.10;99.90;;;;;;5025068;28;20703;-73
2022/12/02 01:07:30;;;;;;;53.57;27.40;;;2.10;99.90;;;;;;5024547;28;20306;-71
2022/12/02 01:09:55;;;;;;;55.03;28.03;;;2.10;99.90;;;;;;5027397;28;20718;-72
2022/12/02 01:12:21;;;;;;;53.13;27.10;;;2.10;99.90;;;;;;5028486;28;20262;-73
2022/12/02 01:14:46;;;;;;;52.57;26.53;;;2.00;99.90;;;;;;5024782;28;20211;-71
2022/12/02 01:17:12;;;;;;;54.93;27.67;;;2.10;99.90;;;;;;5027422;28;20600;-72
2022/12/02 01:19:38;;;;;;;53.63;27.47;;;2.00;99.90;;;;;;5022674;28;20222;-73
2022/12/02 01:22:03;;;;;;;56.30;29.50;;;2.10;99.90;;;;;;5026445;28;20302;-71
2022/12/02 01:24:29;;;;;;;52.27;27.47;;;2.10;99.90;;;;;;5029706;28;20665;-72
2022/12/02 01:26:54;;;;;;;56.50;28.33;;;2.10;99.90;;;;;;5021045;28;20216;-72
2022/12/02 01:29:20;;;;;;;55.87;27.63;;;2.10;99.90;;;;;;5025978;28;20277;-72
2022/12/02 01:31:46;;;;;;;57.20;28.40;;;2.10;99.90;;;;;;5023936;28;20214;-69
2022/12/02 01:34:11;;;;;;;56.67;29.47;;;2.10;99.90;;;;;;5023019;28;20224;-72
2022/12/02 01:36:37;;;;;;;54.50;27.87;;;2.10;99.90;;;;;;5029499;28;20215;-72
2022/12/02 01:39:03;;;;;;;55.07;27.73;;;2.00;99.90;;;;;;5022431;28;20677;-71
2022/12/02 01:41:29;;;;;;;48.80;27.03;;;2.10;99.90;;;;;;5023344;28;20219;-71
2022/12/02 01:43:54;;;;;;;58.87;28.53;;;2.10;99.90;;;;;;5026611;28;20824;-71
2022/12/02 01:46:20;;;;;;;53.90;27.40;;;2.10;99.90;;;;;;5029461;28;20289;-73
2022/12/02 01:48:46;;;;;;;55.63;27.33;;;2.10;99.90;;;;;;5023619;28;20216;-72
2022/12/02 01:51:11;;;;;;;54.87;28.00;;;2.00;99.90;;;;;;5026256;28;20188;-72
2022/12/02 01:53:38;;;;;;;51.60;26.10;;;2.10;99.90;;;;;;5025237;28;20585;-72
2022/12/02 01:56:04;;;;;;;55.50;28.10;;;2.10;99.90;;;;;;5025600;28;20303;-72
2022/12/02 01:58:30;;;;;;;53.40;27.30;;;2.10;99.90;;;;;;5022480;28;20662;-72
2022/12/02 02:00:56;;;;;;;53.93;27.63;;;2.10;99.90;;;;;;5021102;28;20270;-71
2022/12/02 02:03:23;;;;;;;56.23;28.93;;;2.00;99.90;;;;;;5029003;28;20315;-72
2022/12/02 02:05:49;;;;;;;60.70;28.97;;;2.00;99.90;;;;;;5024804;28;20827;-72
2022/12/02 02:08:16;;;;;;;57.17;28.40;;;2.00;99.90;;;;;;5019166;28;20619;-73
2022/12/02 02:10:43;;;;;;;55.73;26.87;;;2.00;99.90;;;;;;5027381;28;20220;-71
2022/12/02 02:13:11;;;;;;;54.43;28.33;;;2.00;99.90;;;;;;5023750;28;20628;-71
2022/12/02 02:15:39;;;;;;;52.60;27.33;;;2.00;99.90;;;;;;5023196;28;20219;-71
2022/12/02 02:18:05;;;;;;;52.83;27.57;;;2.00;99.90;;;;;;5024063;28;20180;-71
2022/12/02 02:20:32;;;;;;;52.63;27.17;;;2.00;99.90;;;;;;5022393;28;20735;-71
2022/12/02 02:23:04;;;;;;;52.80;26.83;;;2.00;99.90;;;;;;5024531;28;20226;-71
2022/12/02 02:25:37;;;;;;;55.00;29.00;;;2.00;99.90;;;;;;5026106;28;20551;-71
2022/12/02 02:28:03;;;;;;;52.17;27.63;;;2.00;99.90;;;;;;5020724;28;20315;-72
2022/12/02 02:30:32;;;;;;;52.43;27.27;;;2.00;99.90;;;;;;5028518;28;20294;-72
2022/12/02 02:33:01;;;;;;;50.93;27.07;;;2.00;99.90;;;;;;5024195;28;20215;-71
2022/12/02 02:35:27;;;;;;;56.20;28.97;;;2.00;99.90;;;;;;5023386;28;20212;-73
2022/12/02 02:37:53;;;;;;;60.43;27.70;;;2.00;99.90;;;;;;5025699;28;20273;-69
2022/12/02 02:40:21;;;;;;;54.37;27.87;;;2.00;99.90;;;;;;5024364;28;20204;-72
2022/12/02 02:42:51;;;;;;;53.63;26.83;;;2.00;99.90;;;;;;5023119;28;20215;-71
2022/12/02 02:45:19;;;;;;;51.80;27.23;;;2.00;99.90;;;;;;5026463;28;20200;-71
2022/12/02 02:47:45;;;;;;;54.67;27.90;;;2.00;99.90;;;;;;5020867;28;20219;-70
2022/12/02 02:50:11;;;;;;;55.37;27.10;;;1.90;99.90;;;;;;5027430;28;20216;-71
2022/12/02 02:52:36;;;;;;;56.30;28.30;;;1.90;99.90;;;;;;5025659;28;20277;-73
2022/12/02 02:55:05;;;;;;;52.77;27.70;;;1.90;99.90;;;;;;5026741;28;20705;-74
2022/12/02 02:57:31;;;;;;;53.20;27.47;;;2.00;99.90;;;;;;5028426;28;20212;-72
2022/12/02 02:59:57;;;;;;;59.00;29.77;;;1.90;99.90;;;;;;5022974;28;20175;-72
2022/12/02 03:02:24;;;;;;;51.37;27.07;;;1.90;99.90;;;;;;5022462;28;20223;-72
2022/12/02 03:04:50;;;;;;;55.30;27.70;;;1.90;99.90;;;;;;5025825;28;20208;-72
2022/12/02 03:07:16;;;;;;;51.97;26.67;;;1.90;99.90;;;;;;5024018;28;20216;-72
2022/12/02 03:09:42;;;;;;;53.20;27.40;;;1.80;99.90;;;;;;5022244;28;20293;-71
2022/12/02 03:12:08;;;;;;;56.40;27.13;;;1.80;99.90;;;;;;5023451;28;20343;-72
2022/12/02 03:14:34;;;;;;;58.33;28.13;;;1.90;99.90;;;;;;5018149;28;20301;-72
2022/12/02 03:17:01;;;;;;;58.77;29.30;;;1.90;99.90;;;;;;5021243;28;20216;-70
2022/12/02 03:19:30;;;;;;;58.63;30.13;;;1.90;99.90;;;;;;5020454;28;20222;-72
2022/12/02 03:21:56;;;;;;;55.20;27.33;;;1.90;99.90;;;;;;5019814;28;20223;-74
2022/12/02 03:24:21;;;;;;;52.77;28.30;;;1.90;99.90;;;;;;5018537;28;20208;-74
2022/12/02 03:26:48;;;;;;;54.80;27.20;;;1.90;99.90;;;;;;5020442;28;20673;-74
2022/12/02 03:29:14;;;;;;;55.37;26.73;;;1.90;99.90;;;;;;5017481;28;20303;-74
2022/12/02 03:31:41;;;;;;;53.93;27.47;;;1.80;99.90;;;;;;5021854;28;20204;-73
2022/12/02 03:34:08;;;;;;;58.40;28.07;;;1.80;99.90;;;;;;5022407;28;20247;-75
2022/12/02 03:36:34;;;;;;;54.03;28.20;;;1.80;99.90;;;;;;5018334;28;20209;-74
2022/12/02 03:39:00;;;;;;;55.07;27.77;;;1.80;99.90;;;;;;5019140;28;20246;-74
2022/12/02 03:41:27;;;;;;;55.10;28.63;;;1.90;99.90;;;;;;5020717;28;20327;-74
2022/12/02 03:43:55;;;;;;;52.13;25.80;;;1.80;99.90;;;;;;5016389;28;20228;-74
2022/12/02 03:46:21;;;;;;;52.13;25.67;;;1.80;99.90;;;;;;5020573;28;20731;-74
2022/12/02 03:48:46;;;;;;;49.67;25.07;;;1.80;99.90;;;;;;5018788;28;20227;-74
2022/12/02 03:51:13;;;;;;;49.07;25.77;;;1.80;99.90;;;;;;5019988;28;20199;-74
2022/12/02 03:53:39;;;;;;;57.77;28.17;;;1.80;99.90;;;;;;5024869;28;20286;-73
2022/12/02 03:56:06;;;;;;;54.67;26.30;;;1.80;99.90;;;;;;5026728;28;20307;-74
2022/12/02 03:58:36;;;;;;;54.70;27.40;;;1.80;99.90;;;;;;5021261;28;20295;-75
2022/12/02 04:01:02;;;;;;;48.93;25.70;;;1.90;99.90;;;;;;5021239;28;20345;-74
2022/12/02 04:03:28;;;;;;;53.57;26.03;;;1.90;99.90;;;;;;5021856;28;21989;-74
2022/12/02 04:05:53;;;;;;;50.00;26.03;;;1.80;99.90;;;;;;5023034;28;20176;-74
2022/12/02 04:08:19;;;;;;;51.60;25.60;;;1.80;99.90;;;;;;5024518;28;20244;-75
2022/12/02 04:10:44;;;;;;;51.43;26.13;;;1.90;99.90;;;;;;5021500;28;20200;-74
2022/12/02 04:13:10;;;;;;;45.40;25.37;;;1.90;99.90;;;;;;5021091;28;20220;-74
2022/12/02 04:15:35;;;;;;;46.27;24.77;;;1.90;99.90;;;;;;5026173;28;20231;-74
2022/12/02 04:18:01;;;;;;;48.20;25.13;;;1.90;99.90;;;;;;5020831;28;20169;-73
2022/12/02 04:20:27;;;;;;;47.77;24.53;;;1.90;99.90;;;;;;5023210;28;20585;-74
2022/12/02 04:22:52;;;;;;;52.83;26.40;;;1.90;99.90;;;;;;5022594;28;20216;-73
2022/12/02 04:25:18;;;;;;;49.10;25.23;;;1.90;99.90;;;;;;5021226;28;20219;-72
2022/12/02 04:27:43;;;;;;;48.10;23.73;;;1.90;99.90;;;;;;5021438;28;20781;-71
2022/12/02 04:30:09;;;;;;;45.57;23.80;;;1.90;99.90;;;;;;5019844;28;20192;-72
2022/12/02 04:32:35;;;;;;;46.50;24.00;;;1.90;99.90;;;;;;5024324;28;20181;-73
2022/12/02 04:35:00;;;;;;;46.73;23.13;;;1.80;99.90;;;;;;5019021;28;20282;-74
2022/12/02 04:37:26;;;;;;;43.80;22.73;;;1.90;99.90;;;;;;5021240;28;20207;-74
2022/12/02 04:39:51;;;;;;;48.57;24.43;;;1.90;99.90;;;;;;5022088;28;20204;-75
2022/12/02 04:42:17;;;;;;;45.07;23.57;;;1.90;99.90;;;;;;5022613;28;20183;-75
2022/12/02 04:44:43;;;;;;;40.93;21.73;;;1.90;99.90;;;;;;5020463;28;20171;-74
2022/12/02 04:47:08;;;;;;;45.47;22.93;;;1.90;99.90;;;;;;5021249;28;20221;-74
2022/12/02 04:49:34;;;;;;;44.17;23.17;;;1.90;99.90;;;;;;5021121;28;20209;-74
2022/12/02 04:51:59;;;;;;;45.80;22.93;;;1.90;99.90;;;;;;5020312;28;20204;-75
2022/12/02 04:54:25;;;;;;;44.40;23.20;;;1.80;99.90;;;;;;5024173;28;20203;-74
2022/12/02 04:56:51;;;;;;;42.27;21.47;;;1.80;99.90;;;;;;5020688;28;20238;-75
2022/12/02 04:59:16;;;;;;;41.23;23.43;;;1.90;99.90;;;;;;5024569;28;20283;-75
2022/12/02 05:01:42;;;;;;;47.20;27.73;;;1.90;99.90;;;;;;5021229;28;20523;-73
2022/12/02 05:04:07;;;;;;;44.37;23.70;;;1.90;99.90;;;;;;5019597;28;20212;-74
2022/12/02 05:06:33;;;;;;;45.10;23.27;;;2.00;99.90;;;;;;5022459;28;20205;-74
2022/12/02 05:08:58;;;;;;;43.40;23.67;;;1.90;99.90;;;;;;5020178;28;20279;-75
2022/12/02 05:11:24;;;;;;;38.93;21.23;;;2.00;99.90;;;;;;5018396;28;20276;-73
2022/12/02 05:13:50;;;;;;;41.10;20.93;;;2.00;99.90;;;;;;5023150;28;20242;-74
2022/12/02 05:16:15;;;;;;;38.90;20.13;;;2.00;99.90;;;;;;5024111;28;20207;-74
2022/12/02 05:18:41;;;;;;;35.40;20.97;;;2.00;99.90;;;;;;5019828;28;20211;-74
2022/12/02 05:21:06;;;;;;;32.27;18.47;;;2.00;99.90;;;;;;5022142;28;20270;-74
2022/12/02 05:23:32;;;;;;;34.83;18.83;;;2.00;99.90;;;;;;5021887;28;20221;-74
2022/12/02 05:25:57;;;;;;;33.57;19.33;;;2.10;99.90;;;;;;5022258;28;20725;-74
2022/12/02 05:28:23;;;;;;;33.60;19.03;;;2.10;99.90;;;;;;5029764;28;20220;-74
2022/12/02 05:30:48;;;;;;;35.53;19.40;;;2.10;99.90;;;;;;5020337;28;20688;-74
2022/12/02 05:33:14;;;;;;;34.03;18.63;;;2.10;99.90;;;;;;5027535;28;20196;-75
2022/12/02 05:35:40;;;;;;;32.70;18.47;;;2.10;99.90;;;;;;5023627;28;20242;-74
2022/12/02 05:38:05;;;;;;;33.87;17.73;;;2.10;99.90;;;;;;5024873;28;20230;-74
2022/12/02 05:40:31;;;;;;;31.83;17.90;;;2.10;99.90;;;;;;5027924;28;20204;-75
2022/12/02 05:43:02;;;;;;;30.37;18.07;;;2.10;99.90;;;;;;5020725;28;20231;-74
2022/12/02 05:45:28;;;;;;;27.83;16.10;;;2.20;99.90;;;;;;5026377;28;21728;-74
2022/12/02 05:47:54;;;;;;;29.03;17.50;;;2.20;99.90;;;;;;5027334;28;20211;-74
2022/12/02 05:50:21;;;;;;;28.57;15.97;;;2.10;99.90;;;;;;5028960;28;20204;-74
2022/12/02 05:52:50;;;;;;;30.27;17.80;;;2.10;99.90;;;;;;5014885;28;20207;-74
2022/12/02 05:55:18;;;;;;;30.37;16.67;;;2.10;99.90;;;;;;5027044;28;20211;-75
2022/12/02 05:57:45;;;;;;;28.20;17.03;;;2.20;99.90;;;;;;5019454;28;20213;-74
2022/12/02 06:00:21;;;;;;;28.23;16.97;;;2.10;99.90;;;;;;5027156;28;20691;-74
2022/12/02 06:02:51;;;;;;;33.03;17.63;;;2.20;99.90;;;;;;5023271;28;20192;-74
2022/12/02 06:05:23;;;;;;;28.50;16.67;;;2.20;99.90;;;;;;5024446;28;20233;-74
2022/12/02 06:07:52;;;;;;;30.43;17.80;;;2.20;99.90;;;;;;5025946;28;20597;-75
2022/12/02 06:10:23;;;;;;;31.93;17.57;;;2.10;99.90;;;;;;5021437;28;20287;-74
2022/12/02 06:12:51;;;;;;;33.97;17.93;;;2.10;99.90;;;;;;5024610;28;20223;-74
2022/12/02 06:15:17;;;;;;;30.97;17.70;;;2.10;99.90;;;;;;5028631;28;20172;-77
2022/12/02 06:17:42;;;;;;;33.60;18.57;;;2.10;99.90;;;;;;5021387;28;20196;-74
2022/12/02 06:20:28;;;;;;;36.77;19.73;;;2.10;99.90;;;;;;5026882;28;20213;-74
2022/12/02 06:22:55;;;;;;;34.17;18.53;;;2.10;99.90;;;;;;5027581;28;20214;-75
2022/12/02 06:25:28;;;;;;;36.63;19.37;;;2.20;99.90;;;;;;5025142;28;20648;-74
2022/12/02 06:27:58;;;;;;;36.00;20.13;;;2.20;99.90;;;;;;5025127;28;20215;-74
2022/12/02 06:30:24;;;;;;;34.60;18.57;;;2.20;99.90;;;;;;5023894;28;20177;-75
2022/12/02 06:32:56;;;;;;;35.47;19.33;;;2.10;99.90;;;;;;5025327;28;20246;-74
2022/12/02 06:35:28;;;;;;;34.77;19.27;;;2.20;99.90;;;;;;5024323;28;20219;-74
2022/12/02 06:37:57;;;;;;;34.13;18.47;;;2.10;99.90;;;;;;5019808;28;20205;-75
2022/12/02 06:40:27;;;;;;;30.23;17.97;;;2.20;99.90;;;;;;5027788;28;20294;-73
2022/12/02 06:42:53;;;;;;;41.13;19.30;;;2.20;99.90;;;;;;5022553;28;20204;-74
2022/12/02 06:45:28;;;;;;;34.73;19.70;;;2.20;99.90;;;;;;5025284;28;20172;-74
2022/12/02 06:48:06;;;;;;;29.93;18.27;;;2.20;99.90;;;;;;5025775;28;20249;-74
2022/12/02 06:50:42;;;;;;;33.87;18.43;;;2.20;99.90;;;;;;5022728;28;20208;-73
2022/12/02 06:53:30;;;;;;;29.20;16.77;;;2.20;99.90;;;;;;5020304;28;20709;-73
2022/12/02 06:56:24;;;;;;;33.70;18.67;;;2.20;99.90;;;;;;5022746;28;20201;-74
2022/12/02 06:59:00;;;;;;;32.53;17.80;;;2.20;99.90;;;;;;5021203;28;20205;-73
2022/12/02 07:01:30;;;;;;;32.40;18.73;;;2.20;99.90;;;;;;5024645;28;20590;-73
2022/12/02 07:04:05;;;;;;;32.30;18.03;;;2.20;99.90;;;;;;5020842;28;20220;-74
2022/12/02 07:06:32;;;;;;;31.47;17.17;;;2.20;99.90;;;;;;5020207;28;20214;-73
2022/12/02 07:09:20;;;;;;;30.80;18.03;;;2.20;99.90;;;;;;5023620;28;20205;-73
2022/12/02 07:11:49;;;;;;;32.77;18.57;;;2.20;99.90;;;;;;4975307;28;20232;-73
2022/12/02 07:14:42;;;;;;;33.03;18.13;;;2.10;99.90;;;;;;5026691;28;20220;-74
2022/12/02 07:17:30;;;;;;;33.40;18.30;;;2.10;99.90;;;;;;5022724;28;20213;-74
2022/12/02 07:20:04;;;;;;;30.50;16.53;;;2.20;99.90;;;;;;5021358;28;20651;-73
2022/12/02 07:22:42;;;;;;;30.30;17.73;;;2.20;99.90;;;;;;5027350;28;20547;-74
2022/12/02 07:25:30;;;;;;;32.77;17.67;;;2.20;99.90;;;;;;5022493;28;20278;-73
2022/12/02 07:27:55;;;;;;;33.27;18.57;;;2.20;99.90;;;;;;5028012;28;20216;-73
2022/12/02 07:30:25;;;;;;;36.77;19.93;;;2.20;99.90;;;;;;5026656;28;20184;-73
2022/12/02 07:32:51;;;;;;;32.97;19.63;;;2.20;99.90;;;;;;5028088;28;20200;-73
2022/12/02 07:35:18;;;;;;;33.80;18.87;;;2.20;99.90;;;;;;5031959;28;20703;-74
2022/12/02 07:37:43;;;;;;;35.43;19.23;;;2.20;99.90;;;;;;5025239;28;20211;-73
2022/12/02 07:40:10;;;;;;;38.70;19.07;;;2.20;99.90;;;;;;5026991;28;20211;-73
2022/12/02 07:42:36;;;;;;;31.70;17.97;;;2.30;99.90;;;;;;5027424;28;20204;-73
2022/12/02 07:45:01;;;;;;;38.23;20.23;;;2.20;99.90;;;;;;5024400;28;20243;-73
2022/12/02 07:47:27;;;;;;;36.73;19.97;;;2.20;99.90;;;;;;5028005;28;20796;-73
2022/12/02 07:49:53;;;;;;;31.37;18.10;;;2.20;99.90;;;;;;5028441;28;20296;-73
2022/12/02 07:52:18;;;;;;;33.43;18.43;;;2.20;99.90;;;;;;5027805;28;20202;-73
2022/12/02 07:54:44;;;;;;;31.53;17.37;;;2.20;99.90;;;;;;5032041;28;20205;-73
2022/12/02 07:57:09;;;;;;;37.17;18.17;;;2.20;99.90;;;;;;5027594;28;20607;-74
2022/12/02 07:59:35;;;;;;;37.60;18.97;;;2.20;99.90;;;;;;5025837;28;20176;-73
2022/12/02 08:02:01;;;;;;;34.17;17.77;;;2.10;99.90;;;;;;5028883;28;20209;-73
2022/12/02 08:04:26;;;;;;;35.33;18.27;;;2.10;99.90;;;;;;5031168;28;20706;-74
2022/12/02 08:06:52;;;;;;;29.30;17.30;;;2.10;99.90;;;;;;5024483;28;20761;-74
2022/12/02 08:09:17;;;;;;;33.17;17.57;;;2.20;99.90;;;;;;5026047;28;20181;-73
2022/12/02 08:11:43;;;;;;;31.53;17.50;;;2.10;99.90;;;;;;5023480;28;20618;-74
2022/12/02 08:14:09;;;;;;;34.17;17.83;;;2.10;99.90;;;;;;5026141;28;20739;-74
2022/12/02 08:16:34;;;;;;;33.23;17.83;;;2.20;99.90;;;;;;5028575;28;20208;-74
2022/12/02 08:19:00;;;;;;;31.17;17.20;;;2.10;99.90;;;;;;5022891;28;20220;-74
2022/12/02 08:21:26;;;;;;;30.40;17.17;;;2.00;99.90;;;;;;5031284;28;20651;-74
2022/12/02 08:23:52;;;;;;;31.27;17.63;;;2.00;99.90;;;;;;5028158;28;20200;-77
2022/12/02 08:26:18;;;;;;;37.70;17.87;;;2.00;99.90;;;;;;5030199;28;20215;-73
2022/12/02 08:28:43;;;;;;;35.07;18.00;;;2.00;99.90;;;;;;5029571;28;20610;-74
2022/12/02 08:31:09;;;;;;;31.93;15.93;;;1.90;99.90;;;;;;5025554;28;20224;-74
2022/12/02 08:33:35;;;;;;;33.83;17.50;;;2.00;99.90;;;;;;5024825;28;20694;-74
2022/12/02 08:36:00;;;;;;;34.40;18.00;;;2.00;99.90;;;;;;5027335;28;20202;-74
2022/12/02 08:38:26;;;;;;;34.20;16.97;;;1.90;99.90;;;;;;5026126;28;20212;-75
2022/12/02 08:40:52;;;;;;;34.37;18.40;;;2.00;99.90;;;;;;5023646;28;21088;-74
2022/12/02 08:43:17;;;;;;;35.53;18.33;;;1.90;99.90;;;;;;5025511;28;20216;-74
2022/12/02 08:45:43;;;;;;;34.13;17.60;;;1.90;99.90;;;;;;5027412;28;20214;-74
2022/12/02 08:48:09;;;;;;;37.03;18.60;;;2.00;99.90;;;;;;5029640;28;20257;-73
2022/12/02 08:50:34;;;;;;;32.17;17.77;;;1.90;99.90;;;;;;5027397;28;20184;-74
2022/12/02 08:53:00;;;;;;;33.03;17.17;;;2.00;99.90;;;;;;5022103;28;20219;-74
2022/12/02 08:55:26;;;;;;;33.97;17.87;;;2.00;99.90;;;;;;5027604;28;20208;-75
2022/12/02 08:57:52;;;;;;;33.83;18.20;;;2.00;99.90;;;;;;5024456;28;20814;-74
2022/12/02 09:00:17;;;;;;;38.83;18.57;;;2.10;99.90;;;;;;5029856;28;20269;-74
2022/12/02 09:02:43;;;;;;;34.37;17.53;;;2.10;99.90;;;;;;5025109;28;20206;-74
2022/12/02 09:05:09;;;;;;;34.27;17.20;;;2.10;99.90;;;;;;5024432;28;20238;-74
2022/12/02 09:07:34;;;;;;;32.13;17.47;;;2.10;99.90;;;;;;5023908;28;20222;-74
2022/12/02 09:10:00;;;;;;;30.60;16.60;;;2.20;99.90;;;;;;5027751;28;20219;-74
2022/12/02 09:12:26;;;;;;;37.77;17.83;;;2.20;99.90;;;;;;5024589;28;20188;-73
2022/12/02 09:14:52;;;;;;;31.57;16.70;;;2.20;99.90;;;;;;5026771;28;20265;-76
2022/12/02 09:17:18;;;;;;;34.87;17.33;;;2.30;99.90;;;;;;5042264;22;20206;-74
2022/12/02 09:19:43;;;;;;;32.27;17.10;;;2.20;99.90;;;;;;5030991;28;20200;-72
2022/12/02 09:22:09;;;;;;;32.30;17.53;;;2.20;99.90;;;;;;5021492;28;20675;-74
2022/12/02 09:24:35;;;;;;;34.43;18.23;;;2.20;99.90;;;;;;5028156;28;20208;-73
2022/12/02 09:27:00;;;;;;;34.60;17.77;;;2.30;99.90;;;;;;5026172;28;20173;-74
2022/12/02 09:29:26;;;;;;;34.47;17.73;;;2.30;99.90;;;;;;5024055;28;20212;-73
2022/12/02 09:31:51;;;;;;;34.77;18.17;;;2.30;99.90;;;;;;5023390;28;20722;-72
2022/12/02 09:34:18;;;;;;;33.00;18.00;;;2.30;99.90;;;;;;5021462;28;20216;-74
2022/12/02 09:36:43;;;;;;;38.77;16.97;;;2.30;99.90;;;;;;5027789;28;20605;-72
2022/12/02 09:39:09;;;;;;;34.80;18.07;;;2.30;99.90;;;;;;5023652;28;20254;-74
2022/12/02 09:41:36;;;;;;;35.83;18.57;;;2.40;99.90;;;;;;5023096;28;20234;-74
2022/12/02 09:44:02;;;;;;;40.93;19.20;;;2.30;99.90;;;;;;5022120;28;20209;-74
2022/12/02 09:46:28;;;;;;;37.37;18.87;;;2.30;99.90;;;;;;5028187;28;20212;-73
2022/12/02 09:48:54;;;;;;;37.50;19.10;;;2.40;99.90;;;;;;5027538;28;20227;-73
2022/12/02 09:51:20;;;;;;;37.17;19.20;;;2.30;99.90;;;;;;5026284;28;20180;-74
2022/12/02 09:53:46;;;;;;;39.03;19.50;;;2.30;99.90;;;;;;5024469;28;20278;-74
2022/12/02 09:56:18;;;;;;;38.17;18.73;;;2.30;99.90;;;;;;5025233;28;20205;-74
2022/12/02 09:58:45;;;;;;;36.63;19.80;;;2.30;99.90;;;;;;5027340;28;20224;-73
2022/12/02 10:01:13;;;;;;;36.80;18.40;;;2.30;99.90;;;;;;5025260;28;20216;-73
2022/12/02 10:03:40;;;;;;;38.30;17.83;;;2.30;99.90;;;;;;5029057;28;20219;-74
2022/12/02 10:06:11;;;;;;;37.60;18.57;;;2.30;99.90;;;;;;5028256;28;20181;-73
2022/12/02 10:08:37;;;;;;;43.47;20.13;;;2.20;99.90;;;;;;5029362;28;20270;-73
2022/12/02 10:11:04;;;;;;;39.90;19.80;;;2.20;99.90;;;;;;5023390;28;20212;-74
2022/12/02 10:13:37;;;;;;;37.37;18.67;;;2.30;99.90;;;;;;5029947;28;20220;-72
2022/12/02 10:16:12;;;;;;;36.70;19.07;;;2.40;99.90;;;;;;5023726;28;20287;-74
2022/12/02 10:18:40;;;;;;;40.40;18.63;;;2.30;99.90;;;;;;5024493;28;20216;-74
2022/12/02 10:21:06;;;;;;;37.70;18.90;;;2.20;99.90;;;;;;5027846;28;20231;-73
2022/12/02 10:23:31;;;;;;;36.13;17.90;;;2.30;99.90;;;;;;5028777;28;20211;-75
2022/12/02 10:26:06;;;;;;;42.40;18.00;;;2.30;99.90;;;;;;5026549;28;20580;-74
2022/12/02 10:28:33;;;;;;;35.37;17.87;;;2.30;99.90;;;;;;5022568;28;20234;-74
2022/12/02 10:31:08;;;;;;;40.40;19.40;;;2.20;99.90;;;;;;5024686;28;20211;-74
2022/12/02 10:33:37;;;;;;;39.50;19.27;;;2.20;99.90;;;;;;5022452;28;20654;-73
2022/12/02 10:36:03;;;;;;;44.53;20.03;;;2.20;99.90;;;;;;5022949;28;20222;-74
2022/12/02 10:38:33;;;;;;;42.10;19.10;;;2.20;99.90;;;;;;5025866;28;20208;-74
2022/12/02 10:41:14;;;;;;;40.20;19.43;;;2.20;99.90;;;;;;5019736;28;20209;-74
2022/12/02 10:43:51;;;;;;;36.80;17.67;;;2.20;99.90;;;;;;5027911;28;20227;-73
2022/12/02 10:46:19;;;;;;;43.47;18.30;;;2.20;99.90;;;;;;5021382;28;20748;-74
2022/12/02 10:48:45;;;;;;;42.23;20.43;;;2.10;99.90;;;;;;5025022;28;20223;-74
2022/12/02 10:51:15;;;;;;;46.47;20.73;;;2.10;99.90;;;;;;5028687;28;20191;-72
2022/12/02 10:53:42;;;;;;;51.67;23.70;;;2.10;99.90;;;;;;5025549;28;20599;-73
2022/12/02 10:56:16;;;;;;;42.60;21.93;;;2.20;99.90;;;;;;5026876;28;20244;-74
2022/12/02 10:58:42;;;;;;;42.80;21.43;;;2.20;99.90;;;;;;5025624;28;20207;-72
2022/12/02 11:01:11;;;;;;;46.40;22.87;;;2.20;99.90;;;;;;5025272;28;20216;-74
2022/12/02 11:03:37;;;;;;;42.43;21.60;;;2.30;99.90;;;;;;5032339;28;20712;-74
2022/12/02 11:06:14;;;;;;;42.47;20.33;;;2.30;99.90;;;;;;5029022;28;20195;-74
2022/12/02 11:08:41;;;;;;;48.17;22.37;;;2.30;99.90;;;;;;5026974;28;20276;-73
2022/12/02 11:11:07;;;;;;;43.20;21.00;;;2.30;99.90;;;;;;5029420;28;20216;-73
2022/12/02 11:13:50;;;;;;;51.67;24.83;;;2.30;99.90;;;;;;5030341;28;20204;-75
2022/12/02 11:16:28;;;;;;;40.00;21.57;;;2.30;99.90;;;;;;5028799;28;20216;-74
2022/12/02 11:19:08;;;;;;;43.40;20.10;;;2.30;99.90;;;;;;5025929;28;20212;-74
2022/12/02 11:21:42;;;;;;;48.13;21.67;;;2.30;99.90;;;;;;5027747;28;20745;-74
2022/12/02 11:24:23;;;;;;;44.43;21.67;;;2.20;99.90;;;;;;5030825;28;20176;-74
2022/12/02 11:27:03;;;;;;;40.87;19.37;;;2.20;99.90;;;;;;5030273;28;20209;-74
2022/12/02 11:29:40;;;;;;;45.03;21.10;;;2.20;99.90;;;;;;5029893;28;20690;-74
2022/12/02 11:32:20;;;;;;;51.13;22.47;;;2.20;99.90;;;;;;5027238;28;20208;-74
2022/12/02 11:34:48;;;;;;;48.20;23.53;;;2.10;99.90;;;;;;5023720;28;20218;-74
2022/12/02 11:37:28;;;;;;;51.53;24.57;;;2.10;99.90;;;;;;5030932;28;20215;-73
2022/12/02 11:39:53;;;;;;;48.37;22.90;;;2.10;99.90;;;;;;5025559;28;20206;-72
2022/12/02 11:42:24;;;;;;;49.50;22.97;;;2.20;99.90;;;;;;5028370;28;20267;-75
2022/12/02 11:44:51;;;;;;;45.40;22.90;;;2.10;99.90;;;;;;5029428;28;20184;-74
2022/12/02 11:47:32;;;;;;;51.43;23.57;;;2.10;99.90;;;;;;5031369;28;20290;-74
2022/12/02 11:50:14;;;;;;;47.00;22.67;;;2.10;99.90;;;;;;5022162;28;20211;-74
2022/12/02 11:52:43;;;;;;;45.33;22.60;;;2.10;99.90;;;;;;5026400;28;20750;-71
2022/12/02 11:55:19;;;;;;;48.27;23.17;;;2.10;99.90;;;;;;5027173;28;20234;-72
2022/12/02 11:57:52;;;;;;;52.27;23.87;;;2.10;99.90;;;;;;5025875;28;20725;-73
2022/12/02 12:00:37;;;;;;;47.50;23.80;;;2.10;99.90;;;;;;5024010;28;20188;-74
2022/12/02 12:03:16;;;;;;;52.17;22.30;;;2.20;99.90;;;;;;5026992;28;20172;-73
2022/12/02 12:06:05;;;;;;;48.43;23.70;;;2.20;99.90;;;;;;5027520;28;20203;-72
2022/12/02 12:08:31;;;;;;;49.20;22.73;;;2.20;99.90;;;;;;5024675;28;20222;-72
2022/12/02 12:11:26;;;;;;;53.73;24.83;;;2.20;99.90;;;;;;5027875;28;20307;-75
2022/12/02 12:14:04;;;;;;;47.57;24.07;;;2.20;99.90;;;;;;5025760;28;20205;-72
2022/12/02 12:16:35;;;;;;;52.07;24.13;;;2.10;99.90;;;;;;5026806;28;20235;-74
2022/12/02 12:19:22;;;;;;;51.83;23.87;;;2.10;99.90;;;;;;5027563;28;20307;-74
2022/12/02 12:21:53;;;;;;;54.13;25.10;;;2.10;99.90;;;;;;5024868;28;20211;-74
2022/12/02 12:24:20;;;;;;;52.77;25.37;;;2.10;99.90;;;;;;5028145;28;20176;-74
2022/12/02 12:26:48;;;;;;;53.87;23.67;;;2.10;99.90;;;;;;5030789;28;20168;-75
2022/12/02 12:29:14;;;;;;;53.87;23.97;;;2.10;99.90;;;;;;5024151;28;20221;-74
2022/12/02 12:31:39;;;;;;;50.23;24.63;;;2.10;99.90;;;;;;5031524;28;20214;-74
2022/12/02 12:34:06;;;;;;;57.00;24.97;;;2.10;99.90;;;;;;5025495;28;20204;-74
2022/12/02 12:36:32;;;;;;;51.40;24.70;;;2.10;99.90;;;;;;5031380;28;20211;-73
2022/12/02 12:38:57;;;;;;;52.57;24.93;;;2.10;99.90;;;;;;5028215;28;20211;-74
2022/12/02 12:41:23;;;;;;;52.50;24.40;;;2.10;99.90;;;;;;5025086;28;20262;-74
2022/12/02 12:43:49;;;;;;;50.63;23.80;;;2.00;99.90;;;;;;5024288;28;20758;-74